Terminal Aerodrome Forecast
Issued by NWS Los Angeles, CA

Home | Current Version | Previous Version | Text Only | Print | Product List | Glossary On
Versions: 1 2 3 4 5 6 7 8 9 10 11 12 13 14 15 16 17 18 19 20 21 22 23 24 25 26 27 28 29 30
000
FTUS46 KLOX 060202 AAA
TAFSMX
TAF AMD
KSMX 060202Z 0602/0624 32011KT P6SM SKC
     FM060400 32007KT P6SM BKN012
     FM060600 VRB03KT P6SM OVC008
     FM061600 VRB03KT P6SM OVC012
     FM061830 31005KT P6SM SCT017
     FM062000 31013KT P6SM SKC=

USA.gov is the U.S. government's official web portal to all federal, state and local government web resources and services.